aviador You're here:

K0CO Decoded Metar

BERTHOUD PASS in CO, USA
Report Time2017-09-24 12:02:00
UTC Time2017-09-24 12:12:12
Flight Rules lifr LIFR
Wind160° at 21 Gusting to 26 kt
W.Rank160° ranks 25
Current wind is above 160° avg. (8.0)
Visibility805 m
Phenomena:Thuderstorm Haze
Clouds:Overcast 002 Hf
Expected CloudBase > 2,000 ft AGL from Temp-Dew spread
Ceiling200 ft
Temp-3°C (ISA +9)
Dew Point-8°C (69% RH)
AAT-13.4°C
QNH1020 hPa
Density Alt14,347 ft
Elevation13,494 ft
Report Wrong Elevation
Raw Report
K0CO 241202Z AUTO 16021G26KT 1/2SM TSHZ OVC002 M03/M08 A3011 RMK
AO2 LTG DSNT S=

Extra information for K0CO:More info

Metar Taf Metar & Taf Last 4 Metars F.Rules Stats Wind Profile Meteogram Temp Stats Airport Information Weather charts Add Link Nearby VenuesMetar ALERT Operation Metar Decoded Social comments

AIRNAV info for K0CO